sensor_id;sensor_type;location;lat;lon;timestamp;P1;durP1;ratioP1;P2;durP2;ratioP2
36185;SDS011;22228;53.222;7.446;2022-11-20T00:00:13;19.17;;;13.13;;
36185;SDS011;22228;53.222;7.446;2022-11-20T00:02:34;16.03;;;12.57;;
36185;SDS011;22228;53.222;7.446;2022-11-20T00:04:55;14.47;;;12.27;;
36185;SDS011;22228;53.222;7.446;2022-11-20T00:07:16;17.00;;;12.63;;
36185;SDS011;22228;53.222;7.446;2022-11-20T00:09:37;15.43;;;12.07;;
36185;SDS011;22228;53.222;7.446;2022-11-20T00:11:57;14.70;;;12.57;;
36185;SDS011;22228;53.222;7.446;2022-11-20T00:14:18;13.20;;;11.73;;
36185;SDS011;22228;53.222;7.446;2022-11-20T00:16:39;13.83;;;11.80;;
36185;SDS011;22228;53.222;7.446;2022-11-20T00:19:00;14.60;;;11.90;;
36185;SDS011;22228;53.222;7.446;2022-11-20T00:21:22;14.13;;;11.80;;
36185;SDS011;22228;53.222;7.446;2022-11-20T00:23:43;16.60;;;12.40;;
36185;SDS011;22228;53.222;7.446;2022-11-20T00:26:04;13.07;;;11.40;;
36185;SDS011;22228;53.222;7.446;2022-11-20T00:28:26;13.00;;;11.00;;
36185;SDS011;22228;53.222;7.446;2022-11-20T00:30:46;15.13;;;11.43;;
36185;SDS011;22228;53.222;7.446;2022-11-20T00:33:08;13.07;;;10.60;;
36185;SDS011;22228;53.222;7.446;2022-11-20T00:35:29;13.93;;;10.73;;
36185;SDS011;22228;53.222;7.446;2022-11-20T00:37:49;11.50;;;9.93;;
36185;SDS011;22228;53.222;7.446;2022-11-20T00:40:10;16.03;;;10.43;;
36185;SDS011;22228;53.222;7.446;2022-11-20T00:42:31;10.77;;;9.67;;
36185;SDS011;22228;53.222;7.446;2022-11-20T00:44:52;11.93;;;10.13;;
36185;SDS011;22228;53.222;7.446;2022-11-20T00:47:13;14.30;;;10.90;;
36185;SDS011;22228;53.222;7.446;2022-11-20T00:49:35;11.40;;;9.60;;
36185;SDS011;22228;53.222;7.446;2022-11-20T00:51:55;13.87;;;11.27;;
36185;SDS011;22228;53.222;7.446;2022-11-20T00:54:16;12.80;;;11.33;;
36185;SDS011;22228;53.222;7.446;2022-11-20T00:56:36;14.13;;;11.50;;
36185;SDS011;22228;53.222;7.446;2022-11-20T00:58:58;12.83;;;10.87;;
36185;SDS011;22228;53.222;7.446;2022-11-20T01:01:20;12.90;;;11.03;;
36185;SDS011;22228;53.222;7.446;2022-11-20T01:03:43;12.57;;;10.20;;
36185;SDS011;22228;53.222;7.446;2022-11-20T01:06:09;14.80;;;11.07;;
36185;SDS011;22228;53.222;7.446;2022-11-20T01:08:30;12.70;;;10.00;;
36185;SDS011;22228;53.222;7.446;2022-11-20T01:10:52;12.87;;;9.37;;
36185;SDS011;22228;53.222;7.446;2022-11-20T01:13:12;11.63;;;10.17;;
36185;SDS011;22228;53.222;7.446;2022-11-20T01:15:50;11.83;;;9.63;;
36185;SDS011;22228;53.222;7.446;2022-11-20T01:18:11;10.83;;;9.43;;
36185;SDS011;22228;53.222;7.446;2022-11-20T01:20:33;13.67;;;9.77;;
36185;SDS011;22228;53.222;7.446;2022-11-20T01:22:56;12.93;;;10.37;;
36185;SDS011;22228;53.222;7.446;2022-11-20T01:25:17;13.43;;;9.90;;
36185;SDS011;22228;53.222;7.446;2022-11-20T01:27:37;13.60;;;10.37;;
36185;SDS011;22228;53.222;7.446;2022-11-20T01:29:58;13.13;;;10.00;;
36185;SDS011;22228;53.222;7.446;2022-11-20T01:32:18;14.10;;;11.03;;
36185;SDS011;22228;53.222;7.446;2022-11-20T01:34:39;14.00;;;10.27;;
36185;SDS011;22228;53.222;7.446;2022-11-20T01:36:59;12.60;;;11.03;;
36185;SDS011;22228;53.222;7.446;2022-11-20T01:39:22;14.77;;;11.90;;
36185;SDS011;22228;53.222;7.446;2022-11-20T01:41:44;16.10;;;12.37;;
36185;SDS011;22228;53.222;7.446;2022-11-20T01:44:39;14.40;;;12.77;;
36185;SDS011;22228;53.222;7.446;2022-11-20T01:47:07;14.43;;;12.03;;
36185;SDS011;22228;53.222;7.446;2022-11-20T01:49:30;14.80;;;12.80;;
36185;SDS011;22228;53.222;7.446;2022-11-20T01:51:55;15.13;;;13.53;;
36185;SDS011;22228;53.222;7.446;2022-11-20T01:54:21;16.13;;;14.17;;
36185;SDS011;22228;53.222;7.446;2022-11-20T01:56:48;16.20;;;13.60;;
36185;SDS011;22228;53.222;7.446;2022-11-20T01:59:15;18.23;;;14.53;;
36185;SDS011;22228;53.222;7.446;2022-11-20T02:01:37;15.47;;;13.60;;
36185;SDS011;22228;53.222;7.446;2022-11-20T02:03:58;18.37;;;14.23;;
36185;SDS011;22228;53.222;7.446;2022-11-20T02:06:21;17.67;;;13.90;;
36185;SDS011;22228;53.222;7.446;2022-11-20T02:08:43;18.53;;;15.07;;
36185;SDS011;22228;53.222;7.446;2022-11-20T02:11:05;18.70;;;14.77;;
36185;SDS011;22228;53.222;7.446;2022-11-20T02:13:26;13.73;;;12.27;;
36185;SDS011;22228;53.222;7.446;2022-11-20T02:16:02;14.93;;;13.33;;
36185;SDS011;22228;53.222;7.446;2022-11-20T02:18:23;16.50;;;13.33;;
36185;SDS011;22228;53.222;7.446;2022-11-20T02:20:44;18.27;;;14.67;;
36185;SDS011;22228;53.222;7.446;2022-11-20T02:23:08;15.60;;;13.43;;
36185;SDS011;22228;53.222;7.446;2022-11-20T02:25:33;17.53;;;14.23;;
36185;SDS011;22228;53.222;7.446;2022-11-20T02:27:56;17.03;;;12.13;;
36185;SDS011;22228;53.222;7.446;2022-11-20T02:30:17;15.00;;;12.00;;
36185;SDS011;22228;53.222;7.446;2022-11-20T02:32:38;12.63;;;11.13;;
36185;SDS011;22228;53.222;7.446;2022-11-20T02:35:05;12.70;;;10.70;;
36185;SDS011;22228;53.222;7.446;2022-11-20T02:37:27;12.80;;;10.83;;
36185;SDS011;22228;53.222;7.446;2022-11-20T02:39:52;12.80;;;9.97;;
36185;SDS011;22228;53.222;7.446;2022-11-20T02:42:14;11.47;;;10.03;;
36185;SDS011;22228;53.222;7.446;2022-11-20T02:44:34;11.27;;;10.07;;
36185;SDS011;22228;53.222;7.446;2022-11-20T02:46:56;13.73;;;10.20;;
36185;SDS011;22228;53.222;7.446;2022-11-20T02:49:17;12.60;;;10.40;;
36185;SDS011;22228;53.222;7.446;2022-11-20T02:51:37;11.00;;;9.23;;
36185;SDS011;22228;53.222;7.446;2022-11-20T02:53:58;12.67;;;9.23;;
36185;SDS011;22228;53.222;7.446;2022-11-20T02:56:18;12.33;;;9.37;;
36185;SDS011;22228;53.222;7.446;2022-11-20T02:58:40;11.97;;;9.97;;
36185;SDS011;22228;53.222;7.446;2022-11-20T03:01:01;11.10;;;9.80;;
36185;SDS011;22228;53.222;7.446;2022-11-20T03:03:21;12.17;;;9.43;;
36185;SDS011;22228;53.222;7.446;2022-11-20T03:05:42;10.47;;;9.00;;
36185;SDS011;22228;53.222;7.446;2022-11-20T03:08:02;9.97;;;8.83;;
36185;SDS011;22228;53.222;7.446;2022-11-20T03:10:23;11.53;;;10.10;;
36185;SDS011;22228;53.222;7.446;2022-11-20T03:12:43;12.83;;;10.27;;
36185;SDS011;22228;53.222;7.446;2022-11-20T03:15:06;14.77;;;10.40;;
36185;SDS011;22228;53.222;7.446;2022-11-20T03:17:27;14.87;;;11.00;;
36185;SDS011;22228;53.222;7.446;2022-11-20T03:19:48;12.57;;;10.73;;
36185;SDS011;22228;53.222;7.446;2022-11-20T03:22:08;11.53;;;10.00;;
36185;SDS011;22228;53.222;7.446;2022-11-20T03:24:28;13.27;;;10.00;;
36185;SDS011;22228;53.222;7.446;2022-11-20T03:26:49;13.70;;;10.73;;
36185;SDS011;22228;53.222;7.446;2022-11-20T03:29:09;14.37;;;10.87;;
36185;SDS011;22228;53.222;7.446;2022-11-20T03:31:32;14.13;;;11.33;;
36185;SDS011;22228;53.222;7.446;2022-11-20T03:33:55;12.00;;;10.77;;
36185;SDS011;22228;53.222;7.446;2022-11-20T03:36:17;15.20;;;12.43;;
36185;SDS011;22228;53.222;7.446;2022-11-20T03:38:39;13.17;;;10.40;;
36185;SDS011;22228;53.222;7.446;2022-11-20T03:41:00;13.07;;;11.00;;
36185;SDS011;22228;53.222;7.446;2022-11-20T03:43:21;14.17;;;10.80;;
36185;SDS011;22228;53.222;7.446;2022-11-20T03:45:41;14.20;;;12.17;;
36185;SDS011;22228;53.222;7.446;2022-11-20T03:48:04;13.57;;;11.83;;
36185;SDS011;22228;53.222;7.446;2022-11-20T03:50:24;13.40;;;11.20;;
36185;SDS011;22228;53.222;7.446;2022-11-20T03:52:45;13.23;;;11.37;;
36185;SDS011;22228;53.222;7.446;2022-11-20T03:55:06;14.83;;;11.47;;
36185;SDS011;22228;53.222;7.446;2022-11-20T03:57:27;13.80;;;11.07;;
36185;SDS011;22228;53.222;7.446;2022-11-20T03:59:47;13.07;;;11.33;;
36185;SDS011;22228;53.222;7.446;2022-11-20T04:02:08;11.43;;;10.23;;
36185;SDS011;22228;53.222;7.446;2022-11-20T04:04:30;12.10;;;10.20;;
36185;SDS011;22228;53.222;7.446;2022-11-20T04:06:50;11.53;;;9.57;;
36185;SDS011;22228;53.222;7.446;2022-11-20T04:09:11;13.43;;;11.20;;
36185;SDS011;22228;53.222;7.446;2022-11-20T04:11:34;15.00;;;10.93;;
36185;SDS011;22228;53.222;7.446;2022-11-20T04:13:57;14.67;;;11.13;;
36185;SDS011;22228;53.222;7.446;2022-11-20T04:16:19;13.10;;;10.33;;
36185;SDS011;22228;53.222;7.446;2022-11-20T04:18:41;11.23;;;9.93;;
36185;SDS011;22228;53.222;7.446;2022-11-20T04:21:04;14.87;;;11.20;;
36185;SDS011;22228;53.222;7.446;2022-11-20T04:23:26;13.70;;;11.00;;
36185;SDS011;22228;53.222;7.446;2022-11-20T04:25:47;12.43;;;9.87;;
36185;SDS011;22228;53.222;7.446;2022-11-20T04:28:07;13.30;;;10.40;;
36185;SDS011;22228;53.222;7.446;2022-11-20T04:30:27;13.43;;;10.33;;
36185;SDS011;22228;53.222;7.446;2022-11-20T04:32:48;10.77;;;9.47;;
36185;SDS011;22228;53.222;7.446;2022-11-20T04:35:08;11.97;;;9.50;;
36185;SDS011;22228;53.222;7.446;2022-11-20T04:37:30;11.17;;;9.97;;
36185;SDS011;22228;53.222;7.446;2022-11-20T04:39:50;14.40;;;10.03;;
36185;SDS011;22228;53.222;7.446;2022-11-20T04:42:11;13.53;;;10.10;;
36185;SDS011;22228;53.222;7.446;2022-11-20T04:44:49;11.60;;;9.73;;
36185;SDS011;22228;53.222;7.446;2022-11-20T04:47:10;11.83;;;10.13;;
36185;SDS011;22228;53.222;7.446;2022-11-20T04:49:30;12.37;;;9.97;;
36185;SDS011;22228;53.222;7.446;2022-11-20T04:51:52;13.30;;;11.37;;
36185;SDS011;22228;53.222;7.446;2022-11-20T04:54:14;14.77;;;10.80;;
36185;SDS011;22228;53.222;7.446;2022-11-20T04:56:34;13.47;;;11.17;;
36185;SDS011;22228;53.222;7.446;2022-11-20T04:58:55;13.03;;;11.23;;
36185;SDS011;22228;53.222;7.446;2022-11-20T05:01:19;13.40;;;11.23;;
36185;SDS011;22228;53.222;7.446;2022-11-20T05:03:41;13.63;;;10.17;;
36185;SDS011;22228;53.222;7.446;2022-11-20T05:06:02;13.73;;;10.73;;
36185;SDS011;22228;53.222;7.446;2022-11-20T05:08:24;12.37;;;10.13;;
36185;SDS011;22228;53.222;7.446;2022-11-20T05:10:46;11.93;;;10.60;;
36185;SDS011;22228;53.222;7.446;2022-11-20T05:13:07;13.93;;;11.20;;
36185;SDS011;22228;53.222;7.446;2022-11-20T05:15:27;13.93;;;10.70;;
36185;SDS011;22228;53.222;7.446;2022-11-20T05:17:48;12.23;;;10.87;;
36185;SDS011;22228;53.222;7.446;2022-11-20T05:20:09;13.53;;;11.07;;
36185;SDS011;22228;53.222;7.446;2022-11-20T05:22:30;13.10;;;10.50;;
36185;SDS011;22228;53.222;7.446;2022-11-20T05:24:51;13.10;;;11.07;;
36185;SDS011;22228;53.222;7.446;2022-11-20T05:27:13;12.70;;;10.70;;
36185;SDS011;22228;53.222;7.446;2022-11-20T05:29:33;13.23;;;11.20;;
36185;SDS011;22228;53.222;7.446;2022-11-20T05:31:54;13.73;;;10.77;;
36185;SDS011;22228;53.222;7.446;2022-11-20T05:34:15;12.63;;;10.63;;
36185;SDS011;22228;53.222;7.446;2022-11-20T05:36:35;15.20;;;11.93;;
36185;SDS011;22228;53.222;7.446;2022-11-20T05:38:56;13.63;;;11.23;;
36185;SDS011;22228;53.222;7.446;2022-11-20T05:41:17;16.00;;;11.67;;
36185;SDS011;22228;53.222;7.446;2022-11-20T05:43:40;15.70;;;12.17;;
36185;SDS011;22228;53.222;7.446;2022-11-20T05:46:02;17.23;;;12.47;;
36185;SDS011;22228;53.222;7.446;2022-11-20T05:48:23;14.17;;;11.80;;
36185;SDS011;22228;53.222;7.446;2022-11-20T05:50:44;12.87;;;11.27;;
36185;SDS011;22228;53.222;7.446;2022-11-20T05:53:04;14.53;;;11.77;;
36185;SDS011;22228;53.222;7.446;2022-11-20T05:55:25;12.77;;;10.93;;
36185;SDS011;22228;53.222;7.446;2022-11-20T05:57:46;14.67;;;11.50;;
36185;SDS011;22228;53.222;7.446;2022-11-20T06:00:09;14.40;;;11.37;;
36185;SDS011;22228;53.222;7.446;2022-11-20T06:02:30;14.13;;;11.23;;
36185;SDS011;22228;53.222;7.446;2022-11-20T06:04:53;14.93;;;11.77;;
36185;SDS011;22228;53.222;7.446;2022-11-20T06:07:14;14.43;;;12.10;;
36185;SDS011;22228;53.222;7.446;2022-11-20T06:09:35;15.53;;;12.77;;
36185;SDS011;22228;53.222;7.446;2022-11-20T06:11:55;14.43;;;12.47;;
36185;SDS011;22228;53.222;7.446;2022-11-20T06:14:16;17.60;;;13.70;;
36185;SDS011;22228;53.222;7.446;2022-11-20T06:16:37;16.30;;;13.03;;
36185;SDS011;22228;53.222;7.446;2022-11-20T06:18:58;16.57;;;13.20;;
36185;SDS011;22228;53.222;7.446;2022-11-20T06:21:19;16.10;;;13.43;;
36185;SDS011;22228;53.222;7.446;2022-11-20T06:23:41;16.33;;;13.20;;
36185;SDS011;22228;53.222;7.446;2022-11-20T06:26:03;15.47;;;12.93;;
36185;SDS011;22228;53.222;7.446;2022-11-20T06:28:24;14.43;;;12.23;;
36185;SDS011;22228;53.222;7.446;2022-11-20T06:30:45;14.90;;;11.90;;
36185;SDS011;22228;53.222;7.446;2022-11-20T06:33:07;13.53;;;11.43;;
36185;SDS011;22228;53.222;7.446;2022-11-20T06:35:28;15.40;;;12.63;;
36185;SDS011;22228;53.222;7.446;2022-11-20T06:37:48;13.97;;;11.67;;
36185;SDS011;22228;53.222;7.446;2022-11-20T06:40:09;13.33;;;11.53;;
36185;SDS011;22228;53.222;7.446;2022-11-20T06:42:30;15.10;;;11.63;;
36185;SDS011;22228;53.222;7.446;2022-11-20T06:44:52;14.00;;;11.83;;
36185;SDS011;22228;53.222;7.446;2022-11-20T06:47:12;18.97;;;12.73;;
36185;SDS011;22228;53.222;7.446;2022-11-20T06:49:34;16.63;;;12.67;;
36185;SDS011;22228;53.222;7.446;2022-11-20T06:51:57;15.70;;;13.63;;
36185;SDS011;22228;53.222;7.446;2022-11-20T06:54:18;16.37;;;13.37;;
36185;SDS011;22228;53.222;7.446;2022-11-20T06:56:38;16.13;;;13.63;;
36185;SDS011;22228;53.222;7.446;2022-11-20T06:58:58;15.90;;;13.10;;
36185;SDS011;22228;53.222;7.446;2022-11-20T07:01:24;15.20;;;11.70;;
36185;SDS011;22228;53.222;7.446;2022-11-20T07:03:44;19.07;;;14.07;;
36185;SDS011;22228;53.222;7.446;2022-11-20T07:06:07;14.87;;;13.13;;
36185;SDS011;22228;53.222;7.446;2022-11-20T07:08:29;16.27;;;13.30;;
36185;SDS011;22228;53.222;7.446;2022-11-20T07:10:50;16.87;;;12.50;;
36185;SDS011;22228;53.222;7.446;2022-11-20T07:13:11;16.30;;;13.50;;
36185;SDS011;22228;53.222;7.446;2022-11-20T07:15:32;15.80;;;13.57;;
36185;SDS011;22228;53.222;7.446;2022-11-20T07:17:52;15.63;;;12.47;;
36185;SDS011;22228;53.222;7.446;2022-11-20T07:20:13;15.60;;;12.53;;
36185;SDS011;22228;53.222;7.446;2022-11-20T07:22:35;14.87;;;12.10;;
36185;SDS011;22228;53.222;7.446;2022-11-20T07:24:56;13.83;;;11.70;;
36185;SDS011;22228;53.222;7.446;2022-11-20T07:27:17;16.63;;;12.87;;
36185;SDS011;22228;53.222;7.446;2022-11-20T07:29:37;16.40;;;13.37;;
36185;SDS011;22228;53.222;7.446;2022-11-20T07:31:58;16.23;;;13.47;;
36185;SDS011;22228;53.222;7.446;2022-11-20T07:34:18;16.27;;;14.37;;
36185;SDS011;22228;53.222;7.446;2022-11-20T07:36:39;20.93;;;17.77;;
36185;SDS011;22228;53.222;7.446;2022-11-20T07:39:01;29.67;;;26.67;;
36185;SDS011;22228;53.222;7.446;2022-11-20T07:41:21;21.60;;;17.73;;
36185;SDS011;22228;53.222;7.446;2022-11-20T07:43:42;19.47;;;16.97;;
36185;SDS011;22228;53.222;7.446;2022-11-20T07:46:02;19.13;;;14.50;;
36185;SDS011;22228;53.222;7.446;2022-11-20T07:48:23;19.37;;;15.57;;
36185;SDS011;22228;53.222;7.446;2022-11-20T07:50:44;18.37;;;14.83;;
36185;SDS011;22228;53.222;7.446;2022-11-20T07:53:04;16.90;;;13.70;;
36185;SDS011;22228;53.222;7.446;2022-11-20T07:55:26;16.70;;;14.90;;
36185;SDS011;22228;53.222;7.446;2022-11-20T07:57:53;16.63;;;14.27;;
36185;SDS011;22228;53.222;7.446;2022-11-20T08:00:14;17.90;;;15.03;;
36185;SDS011;22228;53.222;7.446;2022-11-20T08:02:36;16.00;;;14.17;;
36185;SDS011;22228;53.222;7.446;2022-11-20T08:04:57;19.70;;;14.53;;
36185;SDS011;22228;53.222;7.446;2022-11-20T08:07:17;17.20;;;14.40;;
36185;SDS011;22228;53.222;7.446;2022-11-20T08:09:38;18.30;;;13.77;;
36185;SDS011;22228;53.222;7.446;2022-11-20T08:12:00;17.80;;;13.50;;
36185;SDS011;22228;53.222;7.446;2022-11-20T08:14:38;17.30;;;14.20;;
36185;SDS011;22228;53.222;7.446;2022-11-20T08:16:58;15.80;;;13.30;;
36185;SDS011;22228;53.222;7.446;2022-11-20T08:19:19;15.80;;;13.53;;
36185;SDS011;22228;53.222;7.446;2022-11-20T08:21:40;14.97;;;13.37;;
36185;SDS011;22228;53.222;7.446;2022-11-20T08:24:00;16.30;;;13.90;;
36185;SDS011;22228;53.222;7.446;2022-11-20T08:26:21;18.03;;;14.23;;
36185;SDS011;22228;53.222;7.446;2022-11-20T08:28:43;16.23;;;13.33;;
36185;SDS011;22228;53.222;7.446;2022-11-20T08:31:04;17.93;;;14.03;;
36185;SDS011;22228;53.222;7.446;2022-11-20T08:33:24;14.47;;;12.63;;
36185;SDS011;22228;53.222;7.446;2022-11-20T08:35:45;15.30;;;12.53;;
36185;SDS011;22228;53.222;7.446;2022-11-20T08:38:06;14.93;;;12.03;;
36185;SDS011;22228;53.222;7.446;2022-11-20T08:40:27;12.70;;;11.23;;
36185;SDS011;22228;53.222;7.446;2022-11-20T08:42:47;14.93;;;11.73;;
36185;SDS011;22228;53.222;7.446;2022-11-20T08:45:10;15.47;;;12.50;;
36185;SDS011;22228;53.222;7.446;2022-11-20T08:47:31;13.80;;;10.93;;
36185;SDS011;22228;53.222;7.446;2022-11-20T08:49:51;13.47;;;11.10;;
36185;SDS011;22228;53.222;7.446;2022-11-20T08:52:12;12.80;;;10.70;;
36185;SDS011;22228;53.222;7.446;2022-11-20T08:54:32;13.37;;;11.17;;
36185;SDS011;22228;53.222;7.446;2022-11-20T08:56:53;12.20;;;10.63;;
36185;SDS011;22228;53.222;7.446;2022-11-20T08:59:13;12.30;;;10.63;;
36185;SDS011;22228;53.222;7.446;2022-11-20T09:01:35;12.63;;;9.67;;
36185;SDS011;22228;53.222;7.446;2022-11-20T09:03:55;11.70;;;10.30;;
36185;SDS011;22228;53.222;7.446;2022-11-20T09:06:16;11.27;;;10.17;;
36185;SDS011;22228;53.222;7.446;2022-11-20T09:08:36;11.93;;;10.53;;
36185;SDS011;22228;53.222;7.446;2022-11-20T09:10:57;11.97;;;10.70;;
36185;SDS011;22228;53.222;7.446;2022-11-20T09:13:18;13.47;;;11.07;;
36185;SDS011;22228;53.222;7.446;2022-11-20T09:15:39;12.00;;;10.70;;
36185;SDS011;22228;53.222;7.446;2022-11-20T09:18:01;12.47;;;10.83;;
36185;SDS011;22228;53.222;7.446;2022-11-20T09:20:23;12.80;;;9.77;;
36185;SDS011;22228;53.222;7.446;2022-11-20T09:22:43;12.77;;;10.63;;
36185;SDS011;22228;53.222;7.446;2022-11-20T09:25:04;11.67;;;10.33;;
36185;SDS011;22228;53.222;7.446;2022-11-20T09:27:25;20.23;;;13.83;;
36185;SDS011;22228;53.222;7.446;2022-11-20T09:29:45;11.37;;;10.13;;
36185;SDS011;22228;53.222;7.446;2022-11-20T09:32:06;11.40;;;9.53;;
36185;SDS011;22228;53.222;7.446;2022-11-20T09:34:30;11.90;;;10.13;;
36185;SDS011;22228;53.222;7.446;2022-11-20T09:36:51;11.57;;;10.07;;
36185;SDS011;22228;53.222;7.446;2022-11-20T09:39:11;11.43;;;9.80;;
36185;SDS011;22228;53.222;7.446;2022-11-20T09:41:36;11.30;;;10.10;;
36185;SDS011;22228;53.222;7.446;2022-11-20T09:44:10;11.23;;;9.93;;
36185;SDS011;22228;53.222;7.446;2022-11-20T09:46:40;9.73;;;8.73;;
36185;SDS011;22228;53.222;7.446;2022-11-20T09:49:13;10.60;;;9.50;;
36185;SDS011;22228;53.222;7.446;2022-11-20T09:51:45;11.07;;;9.93;;
36185;SDS011;22228;53.222;7.446;2022-11-20T09:54:13;13.50;;;9.97;;
36185;SDS011;22228;53.222;7.446;2022-11-20T09:56:37;11.83;;;9.57;;
36185;SDS011;22228;53.222;7.446;2022-11-20T09:59:02;10.40;;;9.13;;
36185;SDS011;22228;53.222;7.446;2022-11-20T10:01:26;10.37;;;9.30;;
36185;SDS011;22228;53.222;7.446;2022-11-20T10:03:51;9.80;;;8.80;;
36185;SDS011;22228;53.222;7.446;2022-11-20T10:06:17;10.70;;;9.20;;
36185;SDS011;22228;53.222;7.446;2022-11-20T10:08:51;9.67;;;8.67;;
36185;SDS011;22228;53.222;7.446;2022-11-20T10:11:20;10.30;;;8.63;;
36185;SDS011;22228;53.222;7.446;2022-11-20T10:13:52;10.00;;;9.00;;
36185;SDS011;22228;53.222;7.446;2022-11-20T10:16:24;10.93;;;9.07;;
36185;SDS011;22228;53.222;7.446;2022-11-20T10:18:56;10.77;;;9.23;;
36185;SDS011;22228;53.222;7.446;2022-11-20T10:21:30;9.00;;;8.13;;
36185;SDS011;22228;53.222;7.446;2022-11-20T10:24:04;10.13;;;9.03;;
36185;SDS011;22228;53.222;7.446;2022-11-20T10:26:46;10.30;;;8.50;;
36185;SDS011;22228;53.222;7.446;2022-11-20T10:29:12;9.03;;;8.13;;
36185;SDS011;22228;53.222;7.446;2022-11-20T10:31:36;11.87;;;9.00;;
36185;SDS011;22228;53.222;7.446;2022-11-20T10:34:00;9.70;;;8.70;;
36185;SDS011;22228;53.222;7.446;2022-11-20T10:36:23;10.47;;;8.90;;
36185;SDS011;22228;53.222;7.446;2022-11-20T10:38:47;10.67;;;8.70;;
36185;SDS011;22228;53.222;7.446;2022-11-20T10:41:16;10.23;;;9.23;;
36185;SDS011;22228;53.222;7.446;2022-11-20T10:43:45;10.20;;;9.20;;
36185;SDS011;22228;53.222;7.446;2022-11-20T10:46:08;12.13;;;9.90;;
36185;SDS011;22228;53.222;7.446;2022-11-20T10:48:34;10.60;;;9.53;;
36185;SDS011;22228;53.222;7.446;2022-11-20T10:51:15;13.67;;;10.30;;
36185;SDS011;22228;53.222;7.446;2022-11-20T10:53:45;12.30;;;9.47;;
36185;SDS011;22228;53.222;7.446;2022-11-20T10:56:17;10.80;;;9.67;;
36185;SDS011;22228;53.222;7.446;2022-11-20T10:58:41;11.23;;;10.03;;
36185;SDS011;22228;53.222;7.446;2022-11-20T11:01:13;11.00;;;9.67;;
36185;SDS011;22228;53.222;7.446;2022-11-20T11:03:35;11.07;;;9.57;;
36185;SDS011;22228;53.222;7.446;2022-11-20T11:05:58;12.17;;;10.67;;
36185;SDS011;22228;53.222;7.446;2022-11-20T11:08:24;10.43;;;9.30;;
36185;SDS011;22228;53.222;7.446;2022-11-20T11:10:53;10.60;;;9.57;;
36185;SDS011;22228;53.222;7.446;2022-11-20T11:13:22;10.47;;;9.37;;
36185;SDS011;22228;53.222;7.446;2022-11-20T11:15:44;10.53;;;9.30;;
36185;SDS011;22228;53.222;7.446;2022-11-20T11:18:04;12.77;;;9.47;;
36185;SDS011;22228;53.222;7.446;2022-11-20T11:20:28;12.87;;;9.90;;
36185;SDS011;22228;53.222;7.446;2022-11-20T11:22:49;10.07;;;8.43;;
36185;SDS011;22228;53.222;7.446;2022-11-20T11:25:18;11.60;;;10.27;;
36185;SDS011;22228;53.222;7.446;2022-11-20T11:27:45;12.57;;;10.40;;
36185;SDS011;22228;53.222;7.446;2022-11-20T11:30:15;10.13;;;9.13;;
36185;SDS011;22228;53.222;7.446;2022-11-20T11:32:37;9.67;;;8.70;;
36185;SDS011;22228;53.222;7.446;2022-11-20T11:34:58;10.13;;;9.10;;
36185;SDS011;22228;53.222;7.446;2022-11-20T11:37:19;10.23;;;9.23;;
36185;SDS011;22228;53.222;7.446;2022-11-20T11:39:41;9.57;;;8.60;;
36185;SDS011;22228;53.222;7.446;2022-11-20T11:42:02;10.47;;;9.00;;
36185;SDS011;22228;53.222;7.446;2022-11-20T11:44:24;10.13;;;8.90;;
36185;SDS011;22228;53.222;7.446;2022-11-20T11:47:08;10.53;;;9.43;;
36185;SDS011;22228;53.222;7.446;2022-11-20T11:49:37;9.60;;;8.70;;
36185;SDS011;22228;53.222;7.446;2022-11-20T11:52:04;10.10;;;9.10;;
36185;SDS011;22228;53.222;7.446;2022-11-20T11:54:32;9.97;;;8.90;;
36185;SDS011;22228;53.222;7.446;2022-11-20T11:56:58;54.03;;;35.50;;
36185;SDS011;22228;53.222;7.446;2022-11-20T11:59:24;13.67;;;12.27;;
36185;SDS011;22228;53.222;7.446;2022-11-20T12:01:50;11.40;;;9.63;;
36185;SDS011;22228;53.222;7.446;2022-11-20T12:04:19;10.90;;;9.80;;
36185;SDS011;22228;53.222;7.446;2022-11-20T12:06:48;12.03;;;10.23;;
36185;SDS011;22228;53.222;7.446;2022-11-20T12:09:13;10.23;;;9.23;;
36185;SDS011;22228;53.222;7.446;2022-11-20T12:11:34;10.70;;;9.70;;
36185;SDS011;22228;53.222;7.446;2022-11-20T12:14:02;10.03;;;9.03;;
36185;SDS011;22228;53.222;7.446;2022-11-20T12:16:34;9.83;;;8.93;;
36185;SDS011;22228;53.222;7.446;2022-11-20T12:18:56;10.57;;;9.47;;
36185;SDS011;22228;53.222;7.446;2022-11-20T12:21:24;10.00;;;8.80;;
36185;SDS011;22228;53.222;7.446;2022-11-20T12:23:53;9.63;;;8.67;;
36185;SDS011;22228;53.222;7.446;2022-11-20T12:26:30;9.63;;;8.20;;
36185;SDS011;22228;53.222;7.446;2022-11-20T12:29:05;9.73;;;8.30;;
36185;SDS011;22228;53.222;7.446;2022-11-20T12:31:37;10.27;;;8.67;;
36185;SDS011;22228;53.222;7.446;2022-11-20T12:34:12;11.50;;;8.67;;
36185;SDS011;22228;53.222;7.446;2022-11-20T12:36:46;8.20;;;7.40;;
36185;SDS011;22228;53.222;7.446;2022-11-20T12:48:03;10.67;;;9.67;;
36185;SDS011;22228;53.222;7.446;2022-11-20T12:50:55;9.00;;;8.10;;
36185;SDS011;22228;53.222;7.446;2022-11-20T12:53:30;8.77;;;7.80;;
36185;SDS011;22228;53.222;7.446;2022-11-20T12:56:02;13.47;;;9.57;;
36185;SDS011;22228;53.222;7.446;2022-11-20T12:58:32;9.00;;;8.20;;
36185;SDS011;22228;53.222;7.446;2022-11-20T13:01:00;9.53;;;8.57;;
36185;SDS011;22228;53.222;7.446;2022-11-20T13:03:33;9.10;;;8.20;;
36185;SDS011;22228;53.222;7.446;2022-11-20T13:06:04;9.60;;;7.50;;
36185;SDS011;22228;53.222;7.446;2022-11-20T13:08:33;9.43;;;7.67;;
36185;SDS011;22228;53.222;7.446;2022-11-20T13:10:56;8.40;;;7.70;;
36185;SDS011;22228;53.222;7.446;2022-11-20T13:13:22;8.70;;;7.80;;
36185;SDS011;22228;53.222;7.446;2022-11-20T13:15:51;7.80;;;7.03;;
36185;SDS011;22228;53.222;7.446;2022-11-20T13:18:16;8.87;;;7.57;;
36185;SDS011;22228;53.222;7.446;2022-11-20T13:20:40;9.23;;;8.23;;
36185;SDS011;22228;53.222;7.446;2022-11-20T13:23:01;8.53;;;7.67;;
36185;SDS011;22228;53.222;7.446;2022-11-20T13:25:24;8.00;;;7.30;;
36185;SDS011;22228;53.222;7.446;2022-11-20T13:27:46;9.90;;;8.67;;
36185;SDS011;22228;53.222;7.446;2022-11-20T13:30:12;10.33;;;8.77;;
36185;SDS011;22228;53.222;7.446;2022-11-20T13:32:36;8.50;;;7.70;;
36185;SDS011;22228;53.222;7.446;2022-11-20T13:34:57;8.47;;;7.70;;
36185;SDS011;22228;53.222;7.446;2022-11-20T13:37:24;6.90;;;6.20;;
36185;SDS011;22228;53.222;7.446;2022-11-20T13:39:47;6.37;;;5.77;;
36185;SDS011;22228;53.222;7.446;2022-11-20T13:42:20;6.87;;;6.13;;
36185;SDS011;22228;53.222;7.446;2022-11-20T13:44:47;6.53;;;5.93;;
36185;SDS011;22228;53.222;7.446;2022-11-20T13:47:20;7.47;;;6.77;;
36185;SDS011;22228;53.222;7.446;2022-11-20T13:49:42;7.90;;;7.20;;
36185;SDS011;22228;53.222;7.446;2022-11-20T13:52:20;7.47;;;6.63;;
36185;SDS011;22228;53.222;7.446;2022-11-20T13:55:02;6.50;;;5.80;;
36185;SDS011;22228;53.222;7.446;2022-11-20T14:00:31;6.93;;;6.30;;
36185;SDS011;22228;53.222;7.446;2022-11-20T14:02:57;6.53;;;5.93;;
36185;SDS011;22228;53.222;7.446;2022-11-20T14:05:22;7.07;;;6.20;;
36185;SDS011;22228;53.222;7.446;2022-11-20T14:07:43;7.33;;;6.63;;
36185;SDS011;22228;53.222;7.446;2022-11-20T14:10:04;7.73;;;7.00;;
36185;SDS011;22228;53.222;7.446;2022-11-20T14:12:27;8.50;;;7.67;;
36185;SDS011;22228;53.222;7.446;2022-11-20T14:14:50;7.03;;;6.50;;
36185;SDS011;22228;53.222;7.446;2022-11-20T14:17:17;7.83;;;7.13;;